sensor_id;sensor_type;location;lat;lon;timestamp;temperature;humidity
21522;DHT22;10922;45.572;10.002;2023-03-01T00:02:20;7.30;99.90
21522;DHT22;10922;45.572;10.002;2023-03-01T00:04:46;7.30;99.90
21522;DHT22;10922;45.572;10.002;2023-03-01T00:07:12;7.40;99.90
21522;DHT22;10922;45.572;10.002;2023-03-01T00:09:37;7.60;99.90
21522;DHT22;10922;45.572;10.002;2023-03-01T00:12:03;7.10;99.90
21522;DHT22;10922;45.572;10.002;2023-03-01T00:14:29;7.30;99.90
21522;DHT22;10922;45.572;10.002;2023-03-01T00:16:55;7.60;99.90
21522;DHT22;10922;45.572;10.002;2023-03-01T00:19:21;7.60;99.90
21522;DHT22;10922;45.572;10.002;2023-03-01T00:21:47;7.00;99.90
21522;DHT22;10922;45.572;10.002;2023-03-01T00:24:13;6.80;99.90
21522;DHT22;10922;45.572;10.002;2023-03-01T00:26:39;6.60;99.90
21522;DHT22;10922;45.572;10.002;2023-03-01T00:29:05;6.40;99.90
21522;DHT22;10922;45.572;10.002;2023-03-01T00:31:32;6.40;99.90
21522;DHT22;10922;45.572;10.002;2023-03-01T00:34:01;6.60;99.90
21522;DHT22;10922;45.572;10.002;2023-03-01T00:36:30;6.90;99.90
21522;DHT22;10922;45.572;10.002;2023-03-01T00:38:56;6.90;99.90
21522;DHT22;10922;45.572;10.002;2023-03-01T00:41:23;7.00;99.90
21522;DHT22;10922;45.572;10.002;2023-03-01T00:43:50;7.20;99.90
21522;DHT22;10922;45.572;10.002;2023-03-01T00:46:18;7.10;99.90
21522;DHT22;10922;45.572;10.002;2023-03-01T00:48:45;6.90;99.90
21522;DHT22;10922;45.572;10.002;2023-03-01T00:51:17;6.80;99.90
21522;DHT22;10922;45.572;10.002;2023-03-01T00:53:44;6.70;99.90
21522;DHT22;10922;45.572;10.002;2023-03-01T00:56:12;6.80;99.90
21522;DHT22;10922;45.572;10.002;2023-03-01T00:58:38;6.70;99.90
21522;DHT22;10922;45.572;10.002;2023-03-01T01:01:13;6.50;99.90
21522;DHT22;10922;45.572;10.002;2023-03-01T01:06:25;6.30;99.90
21522;DHT22;10922;45.572;10.002;2023-03-01T01:08:53;6.40;99.90
21522;DHT22;10922;45.572;10.002;2023-03-01T01:11:19;6.70;99.90
21522;DHT22;10922;45.572;10.002;2023-03-01T01:13:46;6.70;99.90
21522;DHT22;10922;45.572;10.002;2023-03-01T01:16:16;6.90;99.90
21522;DHT22;10922;45.572;10.002;2023-03-01T01:18:43;7.10;99.90
21522;DHT22;10922;45.572;10.002;2023-03-01T01:21:14;6.70;99.90
21522;DHT22;10922;45.572;10.002;2023-03-01T01:23:41;6.50;99.90
21522;DHT22;10922;45.572;10.002;2023-03-01T01:26:11;6.80;99.90
21522;DHT22;10922;45.572;10.002;2023-03-01T01:28:37;6.80;99.90
21522;DHT22;10922;45.572;10.002;2023-03-01T01:31:04;6.80;99.90
21522;DHT22;10922;45.572;10.002;2023-03-01T01:33:30;6.60;99.90
21522;DHT22;10922;45.572;10.002;2023-03-01T01:35:55;6.60;99.90
21522;DHT22;10922;45.572;10.002;2023-03-01T01:38:21;6.60;99.90
21522;DHT22;10922;45.572;10.002;2023-03-01T01:40:48;6.60;99.90
21522;DHT22;10922;45.572;10.002;2023-03-01T01:43:27;6.50;99.90
21522;DHT22;10922;45.572;10.002;2023-03-01T01:46:02;6.80;99.90
21522;DHT22;10922;45.572;10.002;2023-03-01T01:48:39;6.60;99.90
21522;DHT22;10922;45.572;10.002;2023-03-01T01:51:12;6.40;99.90
21522;DHT22;10922;45.572;10.002;2023-03-01T01:53:39;6.40;99.90
21522;DHT22;10922;45.572;10.002;2023-03-01T01:56:08;6.50;99.90
21522;DHT22;10922;45.572;10.002;2023-03-01T01:58:34;6.40;99.90
21522;DHT22;10922;45.572;10.002;2023-03-01T02:01:01;6.40;99.90
21522;DHT22;10922;45.572;10.002;2023-03-01T02:03:31;6.40;99.90
21522;DHT22;10922;45.572;10.002;2023-03-01T02:06:04;6.40;99.90
21522;DHT22;10922;45.572;10.002;2023-03-01T02:08:35;6.20;99.90
21522;DHT22;10922;45.572;10.002;2023-03-01T02:11:02;6.50;99.90
21522;DHT22;10922;45.572;10.002;2023-03-01T02:13:31;6.40;99.90
21522;DHT22;10922;45.572;10.002;2023-03-01T02:15:58;6.40;99.90
21522;DHT22;10922;45.572;10.002;2023-03-01T02:18:24;6.40;99.90
21522;DHT22;10922;45.572;10.002;2023-03-01T02:21:12;6.60;99.90
21522;DHT22;10922;45.572;10.002;2023-03-01T02:23:40;6.40;99.90
21522;DHT22;10922;45.572;10.002;2023-03-01T02:28:51;6.50;99.90
21522;DHT22;10922;45.572;10.002;2023-03-01T02:31:19;6.50;99.90
21522;DHT22;10922;45.572;10.002;2023-03-01T02:34:04;6.30;99.90
21522;DHT22;10922;45.572;10.002;2023-03-01T02:37:03;6.10;99.90
21522;DHT22;10922;45.572;10.002;2023-03-01T02:39:46;6.30;99.90
21522;DHT22;10922;45.572;10.002;2023-03-01T02:42:17;6.60;1.00
21522;DHT22;10922;45.572;10.002;2023-03-01T02:44:44;6.40;99.90
21522;DHT22;10922;45.572;10.002;2023-03-01T02:47:09;6.30;99.90
21522;DHT22;10922;45.572;10.002;2023-03-01T02:49:36;6.40;1.00
21522;DHT22;10922;45.572;10.002;2023-03-01T02:55:06;6.20;1.00
21522;DHT22;10922;45.572;10.002;2023-03-01T02:57:35;6.30;1.00
21522;DHT22;10922;45.572;10.002;2023-03-01T03:00:07;6.30;1.00
21522;DHT22;10922;45.572;10.002;2023-03-01T03:02:34;6.20;1.00
21522;DHT22;10922;45.572;10.002;2023-03-01T03:05:15;6.20;1.00
21522;DHT22;10922;45.572;10.002;2023-03-01T03:07:44;6.20;1.00
21522;DHT22;10922;45.572;10.002;2023-03-01T03:10:15;6.10;1.00
21522;DHT22;10922;45.572;10.002;2023-03-01T03:12:42;6.30;1.00
21522;DHT22;10922;45.572;10.002;2023-03-01T03:15:09;6.50;1.00
21522;DHT22;10922;45.572;10.002;2023-03-01T03:17:39;6.20;1.00
21522;DHT22;10922;45.572;10.002;2023-03-01T03:20:06;6.40;1.00
21522;DHT22;10922;45.572;10.002;2023-03-01T03:22:37;6.40;1.00
21522;DHT22;10922;45.572;10.002;2023-03-01T03:25:03;6.30;1.00
21522;DHT22;10922;45.572;10.002;2023-03-01T03:27:29;6.30;1.00
21522;DHT22;10922;45.572;10.002;2023-03-01T03:29:57;6.20;1.00
21522;DHT22;10922;45.572;10.002;2023-03-01T03:32:23;6.10;1.00
21522;DHT22;10922;45.572;10.002;2023-03-01T03:34:48;6.40;1.00
21522;DHT22;10922;45.572;10.002;2023-03-01T03:37:14;6.10;1.00
21522;DHT22;10922;45.572;10.002;2023-03-01T03:40:00;5.90;1.00
21522;DHT22;10922;45.572;10.002;2023-03-01T03:42:26;5.80;1.00
21522;DHT22;10922;45.572;10.002;2023-03-01T03:44:51;5.80;1.00
21522;DHT22;10922;45.572;10.002;2023-03-01T03:47:17;6.00;1.00
21522;DHT22;10922;45.572;10.002;2023-03-01T03:49:43;6.20;1.00
21522;DHT22;10922;45.572;10.002;2023-03-01T03:52:08;6.20;1.00
21522;DHT22;10922;45.572;10.002;2023-03-01T03:54:40;6.20;1.00
21522;DHT22;10922;45.572;10.002;2023-03-01T03:57:06;6.20;1.00
21522;DHT22;10922;45.572;10.002;2023-03-01T03:59:32;5.90;1.00
21522;DHT22;10922;45.572;10.002;2023-03-01T04:01:58;5.90;1.00
21522;DHT22;10922;45.572;10.002;2023-03-01T04:04:23;6.40;1.00
21522;DHT22;10922;45.572;10.002;2023-03-01T04:06:49;5.70;1.00
21522;DHT22;10922;45.572;10.002;2023-03-01T04:09:15;6.20;1.00
21522;DHT22;10922;45.572;10.002;2023-03-01T04:11:40;5.90;1.00
21522;DHT22;10922;45.572;10.002;2023-03-01T04:14:06;6.30;1.00
21522;DHT22;10922;45.572;10.002;2023-03-01T04:16:32;5.90;99.90
21522;DHT22;10922;45.572;10.002;2023-03-01T04:18:57;5.80;1.00
21522;DHT22;10922;45.572;10.002;2023-03-01T04:21:24;6.10;1.00
21522;DHT22;10922;45.572;10.002;2023-03-01T04:23:50;6.20;1.00
21522;DHT22;10922;45.572;10.002;2023-03-01T04:26:18;6.00;1.00
21522;DHT22;10922;45.572;10.002;2023-03-01T04:28:45;5.30;1.00
21522;DHT22;10922;45.572;10.002;2023-03-01T04:31:13;5.20;99.90
21522;DHT22;10922;45.572;10.002;2023-03-01T04:33:46;5.50;1.00
21522;DHT22;10922;45.572;10.002;2023-03-01T04:36:13;5.00;99.90
21522;DHT22;10922;45.572;10.002;2023-03-01T04:38:40;5.50;1.00
21522;DHT22;10922;45.572;10.002;2023-03-01T04:41:07;5.80;1.00
21522;DHT22;10922;45.572;10.002;2023-03-01T04:43:33;5.70;1.00
21522;DHT22;10922;45.572;10.002;2023-03-01T04:46:04;5.40;99.90
21522;DHT22;10922;45.572;10.002;2023-03-01T04:48:31;5.50;1.00
21522;DHT22;10922;45.572;10.002;2023-03-01T04:50:59;5.80;1.00
21522;DHT22;10922;45.572;10.002;2023-03-01T04:53:24;5.90;1.00
21522;DHT22;10922;45.572;10.002;2023-03-01T04:55:51;5.90;1.00
21522;DHT22;10922;45.572;10.002;2023-03-01T04:58:16;5.80;1.00
21522;DHT22;10922;45.572;10.002;2023-03-01T05:00:42;5.80;1.00
21522;DHT22;10922;45.572;10.002;2023-03-01T05:03:08;5.60;1.00
21522;DHT22;10922;45.572;10.002;2023-03-01T05:05:37;5.30;1.00
21522;DHT22;10922;45.572;10.002;2023-03-01T05:08:05;5.20;99.90
21522;DHT22;10922;45.572;10.002;2023-03-01T05:10:33;5.10;1.00
21522;DHT22;10922;45.572;10.002;2023-03-01T05:13:00;5.40;1.00
21522;DHT22;10922;45.572;10.002;2023-03-01T05:15:27;5.20;1.00
21522;DHT22;10922;45.572;10.002;2023-03-01T05:17:58;5.60;1.00
21522;DHT22;10922;45.572;10.002;2023-03-01T05:20:26;5.40;1.00
21522;DHT22;10922;45.572;10.002;2023-03-01T05:22:53;5.70;1.00
21522;DHT22;10922;45.572;10.002;2023-03-01T05:25:20;5.70;1.00
21522;DHT22;10922;45.572;10.002;2023-03-01T05:27:46;5.40;1.00
21522;DHT22;10922;45.572;10.002;2023-03-01T05:30:13;4.90;99.90
21522;DHT22;10922;45.572;10.002;2023-03-01T05:32:46;5.50;1.00
21522;DHT22;10922;45.572;10.002;2023-03-01T05:35:14;5.50;1.00
21522;DHT22;10922;45.572;10.002;2023-03-01T05:37:45;5.40;1.00
21522;DHT22;10922;45.572;10.002;2023-03-01T05:40:13;5.30;1.00
21522;DHT22;10922;45.572;10.002;2023-03-01T05:42:47;5.70;1.00
21522;DHT22;10922;45.572;10.002;2023-03-01T05:45:14;5.20;1.00
21522;DHT22;10922;45.572;10.002;2023-03-01T05:47:41;5.00;1.00
21522;DHT22;10922;45.572;10.002;2023-03-01T05:50:11;5.20;1.00
21522;DHT22;10922;45.572;10.002;2023-03-01T05:52:37;5.10;1.00
21522;DHT22;10922;45.572;10.002;2023-03-01T05:55:04;5.20;1.00
21522;DHT22;10922;45.572;10.002;2023-03-01T05:57:29;5.40;1.00
21522;DHT22;10922;45.572;10.002;2023-03-01T05:59:55;5.10;1.00
21522;DHT22;10922;45.572;10.002;2023-03-01T06:02:21;5.10;1.00
21522;DHT22;10922;45.572;10.002;2023-03-01T06:04:46;4.90;1.00
21522;DHT22;10922;45.572;10.002;2023-03-01T06:07:12;4.90;1.00
21522;DHT22;10922;45.572;10.002;2023-03-01T06:09:37;5.00;1.00
21522;DHT22;10922;45.572;10.002;2023-03-01T06:12:03;5.20;1.00
21522;DHT22;10922;45.572;10.002;2023-03-01T06:14:30;5.00;1.00
21522;DHT22;10922;45.572;10.002;2023-03-01T06:16:56;5.30;1.00
21522;DHT22;10922;45.572;10.002;2023-03-01T06:19:22;5.30;1.00
21522;DHT22;10922;45.572;10.002;2023-03-01T06:21:48;5.30;1.00
21522;DHT22;10922;45.572;10.002;2023-03-01T06:24:14;5.30;1.00
21522;DHT22;10922;45.572;10.002;2023-03-01T06:26:39;5.40;1.00
21522;DHT22;10922;45.572;10.002;2023-03-01T06:29:05;5.60;1.00
21522;DHT22;10922;45.572;10.002;2023-03-01T06:31:31;5.40;1.00
21522;DHT22;10922;45.572;10.002;2023-03-01T06:33:59;5.40;1.00
21522;DHT22;10922;45.572;10.002;2023-03-01T06:36:25;5.40;1.00
21522;DHT22;10922;45.572;10.002;2023-03-01T06:38:51;5.70;1.00
21522;DHT22;10922;45.572;10.002;2023-03-01T06:41:17;5.40;1.00
21522;DHT22;10922;45.572;10.002;2023-03-01T06:43:42;5.70;1.00
21522;DHT22;10922;45.572;10.002;2023-03-01T06:46:08;5.40;1.00
21522;DHT22;10922;45.572;10.002;2023-03-01T06:48:34;5.20;1.00
21522;DHT22;10922;45.572;10.002;2023-03-01T06:51:00;5.20;1.00
21522;DHT22;10922;45.572;10.002;2023-03-01T06:53:27;5.80;1.00
21522;DHT22;10922;45.572;10.002;2023-03-01T06:55:57;6.00;1.00
21522;DHT22;10922;45.572;10.002;2023-03-01T06:58:32;5.90;1.00
21522;DHT22;10922;45.572;10.002;2023-03-01T07:00:58;5.80;1.00
21522;DHT22;10922;45.572;10.002;2023-03-01T07:03:23;6.00;1.00
21522;DHT22;10922;45.572;10.002;2023-03-01T07:05:49;5.90;1.00
21522;DHT22;10922;45.572;10.002;2023-03-01T07:08:18;5.90;1.00
21522;DHT22;10922;45.572;10.002;2023-03-01T07:10:44;6.00;1.00
21522;DHT22;10922;45.572;10.002;2023-03-01T07:13:09;6.10;1.00
21522;DHT22;10922;45.572;10.002;2023-03-01T07:15:35;6.10;1.00
21522;DHT22;10922;45.572;10.002;2023-03-01T07:18:01;6.20;1.00
21522;DHT22;10922;45.572;10.002;2023-03-01T07:20:27;6.20;1.00
21522;DHT22;10922;45.572;10.002;2023-03-01T07:22:54;6.40;1.00
21522;DHT22;10922;45.572;10.002;2023-03-01T07:25:20;6.30;1.00
21522;DHT22;10922;45.572;10.002;2023-03-01T07:27:50;6.20;1.00
21522;DHT22;10922;45.572;10.002;2023-03-01T07:30:16;6.00;1.00
21522;DHT22;10922;45.572;10.002;2023-03-01T07:32:42;6.00;1.00
21522;DHT22;10922;45.572;10.002;2023-03-01T07:35:08;6.20;1.00
21522;DHT22;10922;45.572;10.002;2023-03-01T07:37:34;6.30;1.00
21522;DHT22;10922;45.572;10.002;2023-03-01T07:39:59;6.60;1.00
21522;DHT22;10922;45.572;10.002;2023-03-01T07:42:25;6.70;1.00
21522;DHT22;10922;45.572;10.002;2023-03-01T07:44:51;6.80;1.00
21522;DHT22;10922;45.572;10.002;2023-03-01T07:47:16;6.90;1.00
21522;DHT22;10922;45.572;10.002;2023-03-01T07:49:42;6.90;1.00
21522;DHT22;10922;45.572;10.002;2023-03-01T07:52:10;7.00;1.00
21522;DHT22;10922;45.572;10.002;2023-03-01T07:54:36;6.90;1.00
21522;DHT22;10922;45.572;10.002;2023-03-01T07:57:02;7.00;1.00
21522;DHT22;10922;45.572;10.002;2023-03-01T07:59:28;7.30;1.00
21522;DHT22;10922;45.572;10.002;2023-03-01T08:01:57;6.80;1.00
21522;DHT22;10922;45.572;10.002;2023-03-01T08:04:23;6.80;1.00
21522;DHT22;10922;45.572;10.002;2023-03-01T08:06:50;6.90;1.00
21522;DHT22;10922;45.572;10.002;2023-03-01T08:09:16;7.00;1.00
21522;DHT22;10922;45.572;10.002;2023-03-01T08:11:42;6.90;1.00
21522;DHT22;10922;45.572;10.002;2023-03-01T08:14:08;6.90;1.00
21522;DHT22;10922;45.572;10.002;2023-03-01T08:16:34;6.80;1.00
21522;DHT22;10922;45.572;10.002;2023-03-01T08:19:08;6.80;1.00
21522;DHT22;10922;45.572;10.002;2023-03-01T08:21:34;7.10;1.00
21522;DHT22;10922;45.572;10.002;2023-03-01T08:24:01;7.10;1.00
21522;DHT22;10922;45.572;10.002;2023-03-01T08:26:27;7.00;1.00
21522;DHT22;10922;45.572;10.002;2023-03-01T08:28:53;6.90;1.00
21522;DHT22;10922;45.572;10.002;2023-03-01T08:31:25;7.30;1.00
21522;DHT22;10922;45.572;10.002;2023-03-01T08:33:53;6.70;1.00
21522;DHT22;10922;45.572;10.002;2023-03-01T08:36:27;6.80;1.00
21522;DHT22;10922;45.572;10.002;2023-03-01T08:38:53;6.90;1.00
21522;DHT22;10922;45.572;10.002;2023-03-01T08:41:19;6.80;1.00
21522;DHT22;10922;45.572;10.002;2023-03-01T08:43:45;6.80;1.00
21522;DHT22;10922;45.572;10.002;2023-03-01T08:46:12;7.20;1.00
21522;DHT22;10922;45.572;10.002;2023-03-01T08:48:38;7.20;1.00
21522;DHT22;10922;45.572;10.002;2023-03-01T08:51:17;7.20;1.00
21522;DHT22;10922;45.572;10.002;2023-03-01T08:53:44;7.30;1.00
21522;DHT22;10922;45.572;10.002;2023-03-01T08:56:10;7.50;1.00
21522;DHT22;10922;45.572;10.002;2023-03-01T08:58:36;7.60;1.00
21522;DHT22;10922;45.572;10.002;2023-03-01T09:01:13;7.60;1.00
21522;DHT22;10922;45.572;10.002;2023-03-01T09:03:39;7.90;1.00
21522;DHT22;10922;45.572;10.002;2023-03-01T09:06:17;7.60;1.00
21522;DHT22;10922;45.572;10.002;2023-03-01T09:08:45;7.80;1.00
21522;DHT22;10922;45.572;10.002;2023-03-01T09:11:13;8.00;1.00
21522;DHT22;10922;45.572;10.002;2023-03-01T09:13:40;7.90;1.00
21522;DHT22;10922;45.572;10.002;2023-03-01T09:16:07;7.90;1.00
21522;DHT22;10922;45.572;10.002;2023-03-01T09:18:33;8.00;1.00
21522;DHT22;10922;45.572;10.002;2023-03-01T09:21:14;7.70;1.00
21522;DHT22;10922;45.572;10.002;2023-03-01T09:23:42;8.00;1.00
21522;DHT22;10922;45.572;10.002;2023-03-01T09:26:11;8.00;1.00
21522;DHT22;10922;45.572;10.002;2023-03-01T09:28:37;8.50;1.00
21522;DHT22;10922;45.572;10.002;2023-03-01T09:31:03;8.30;1.00
21522;DHT22;10922;45.572;10.002;2023-03-01T09:33:30;8.40;1.00
21522;DHT22;10922;45.572;10.002;2023-03-01T09:35:58;8.20;99.90
21522;DHT22;10922;45.572;10.002;2023-03-01T09:38:24;8.40;99.90
21522;DHT22;10922;45.572;10.002;2023-03-01T09:40:49;8.20;99.90
21522;DHT22;10922;45.572;10.002;2023-03-01T09:43:49;8.60;1.00
21522;DHT22;10922;45.572;10.002;2023-03-01T09:46:21;8.40;99.90
21522;DHT22;10922;45.572;10.002;2023-03-01T09:48:57;8.80;1.00
21522;DHT22;10922;45.572;10.002;2023-03-01T09:51:33;8.50;99.90
21522;DHT22;10922;45.572;10.002;2023-03-01T09:54:01;8.30;99.90
21522;DHT22;10922;45.572;10.002;2023-03-01T10:05:23;8.40;99.90
21522;DHT22;10922;45.572;10.002;2023-03-01T10:10:40;8.40;99.90
21522;DHT22;10922;45.572;10.002;2023-03-01T10:16:14;8.70;99.90
21522;DHT22;10922;45.572;10.002;2023-03-01T10:18:41;9.10;99.90
21522;DHT22;10922;45.572;10.002;2023-03-01T10:21:18;9.40;99.90
21522;DHT22;10922;45.572;10.002;2023-03-01T10:23:44;9.70;99.90
21522;DHT22;10922;45.572;10.002;2023-03-01T10:29:23;9.80;1.00
21522;DHT22;10922;45.572;10.002;2023-03-01T10:31:51;9.80;99.90
21522;DHT22;10922;45.572;10.002;2023-03-01T10:34:18;9.60;99.90
21522;DHT22;10922;45.572;10.002;2023-03-01T10:36:48;9.80;99.90
21522;DHT22;10922;45.572;10.002;2023-03-01T10:39:21;10.10;99.90
21522;DHT22;10922;45.572;10.002;2023-03-01T10:42:00;9.80;99.90
21522;DHT22;10922;45.572;10.002;2023-03-01T10:44:46;9.60;99.90
21522;DHT22;10922;45.572;10.002;2023-03-01T10:47:23;9.60;99.90
21522;DHT22;10922;45.572;10.002;2023-03-01T10:50:04;9.90;99.90
21522;DHT22;10922;45.572;10.002;2023-03-01T10:52:36;9.90;99.90
21522;DHT22;10922;45.572;10.002;2023-03-01T10:55:33;9.80;99.90
21522;DHT22;10922;45.572;10.002;2023-03-01T10:58:26;9.80;99.90
21522;DHT22;10922;45.572;10.002;2023-03-01T11:00:57;9.70;99.90
21522;DHT22;10922;45.572;10.002;2023-03-01T11:03:24;10.00;99.90
21522;DHT22;10922;45.572;10.002;2023-03-01T11:08:49;10.00;99.90
21522;DHT22;10922;45.572;10.002;2023-03-01T11:11:29;9.90;99.90
21522;DHT22;10922;45.572;10.002;2023-03-01T11:14:26;9.80;99.90
21522;DHT22;10922;45.572;10.002;2023-03-01T11:19:49;9.60;99.90
21522;DHT22;10922;45.572;10.002;2023-03-01T11:22:25;9.50;99.90
21522;DHT22;10922;45.572;10.002;2023-03-01T11:24:53;9.70;99.90
21522;DHT22;10922;45.572;10.002;2023-03-01T11:27:23;9.80;99.90
21522;DHT22;10922;45.572;10.002;2023-03-01T11:30:15;9.90;99.90
21522;DHT22;10922;45.572;10.002;2023-03-01T11:35:24;9.70;99.90
21522;DHT22;10922;45.572;10.002;2023-03-01T11:38:24;9.60;99.90
21522;DHT22;10922;45.572;10.002;2023-03-01T11:40:54;9.60;99.90
21522;DHT22;10922;45.572;10.002;2023-03-01T11:51:56;9.70;99.90
21522;DHT22;10922;45.572;10.002;2023-03-01T12:00:40;9.50;99.90
21522;DHT22;10922;45.572;10.002;2023-03-01T12:03:02;9.50;99.90
21522;DHT22;10922;45.572;10.002;2023-03-01T12:11:03;9.60;99.90
21522;DHT22;10922;45.572;10.002;2023-03-01T12:19:25;9.90;99.90
21522;DHT22;10922;45.572;10.002;2023-03-01T12:33:34;9.70;99.90
21522;DHT22;10922;45.572;10.002;2023-03-01T12:38:49;10.00;99.90
21522;DHT22;10922;45.572;10.002;2023-03-01T12:49:19;10.20;99.90
21522;DHT22;10922;45.572;10.002;2023-03-01T12:51:56;10.60;99.90
21522;DHT22;10922;45.572;10.002;2023-03-01T12:54:28;10.60;99.90
21522;DHT22;10922;45.572;10.002;2023-03-01T12:56:57;10.70;99.90
21522;DHT22;10922;45.572;10.002;2023-03-01T12:59:36;10.70;99.90
21522;DHT22;10922;45.572;10.002;2023-03-01T13:17:52;10.50;99.90
21522;DHT22;10922;45.572;10.002;2023-03-01T13:20:34;10.50;99.90
21522;DHT22;10922;45.572;10.002;2023-03-01T13:36:45;11.10;99.90
21522;DHT22;10922;45.572;10.002;2023-03-01T13:39:32;11.10;1.00
21522;DHT22;10922;45.572;10.002;2023-03-01T13:42:43;11.20;99.90
21522;DHT22;10922;45.572;10.002;2023-03-01T13:45:19;11.20;99.90
21522;DHT22;10922;45.572;10.002;2023-03-01T13:47:46;11.40;99.90
21522;DHT22;10922;45.572;10.002;2023-03-01T13:50:43;11.30;99.90
21522;DHT22;10922;45.572;10.002;2023-03-01T13:53:16;10.90;99.90
21522;DHT22;10922;45.572;10.002;2023-03-01T13:55:47;10.70;99.90
21522;DHT22;10922;45.572;10.002;2023-03-01T14:01:00;10.70;99.90
21522;DHT22;10922;45.572;10.002;2023-03-01T14:03:27;10.70;99.90
21522;DHT22;10922;45.572;10.002;2023-03-01T14:06:09;10.90;99.90
21522;DHT22;10922;45.572;10.002;2023-03-01T14:08:37;10.90;99.90
21522;DHT22;10922;45.572;10.002;2023-03-01T14:19:28;10.80;99.90
21522;DHT22;10922;45.572;10.002;2023-03-01T14:22:05;10.70;99.90
21522;DHT22;10922;45.572;10.002;2023-03-01T14:24:40;10.70;99.90
21522;DHT22;10922;45.572;10.002;2023-03-01T14:27:12;11.00;99.90
21522;DHT22;10922;45.572;10.002;2023-03-01T14:29:39;10.80;99.90
21522;DHT22;10922;45.572;10.002;2023-03-01T14:34:35;10.60;99.90
21522;DHT22;10922;45.572;10.002;2023-03-01T14:39:42;10.90;99.90
21522;DHT22;10922;45.572;10.002;2023-03-01T14:42:08;10.90;99.90
21522;DHT22;10922;45.572;10.002;2023-03-01T14:44:34;11.20;99.90
21522;DHT22;10922;45.572;10.002;2023-03-01T14:47:02;11.20;99.90
21522;DHT22;10922;45.572;10.002;2023-03-01T14:49:30;10.50;99.90
21522;DHT22;10922;45.572;10.002;2023-03-01T14:52:05;10.80;99.90
21522;DHT22;10922;45.572;10.002;2023-03-01T14:54:47;10.80;99.90
21522;DHT22;10922;45.572;10.002;2023-03-01T14:57:24;10.90;99.90
21522;DHT22;10922;45.572;10.002;2023-03-01T14:59:53;10.90;99.90
21522;DHT22;10922;45.572;10.002;2023-03-01T15:02:23;11.30;99.90
21522;DHT22;10922;45.572;10.002;2023-03-01T15:04:56;10.90;99.90
21522;DHT22;10922;45.572;10.002;2023-03-01T15:07:27;11.10;99.90
21522;DHT22;10922;45.572;10.002;2023-03-01T15:09:54;11.00;99.90
21522;DHT22;10922;45.572;10.002;2023-03-01T15:12:34;11.20;99.90
21522;DHT22;10922;45.572;10.002;2023-03-01T15:15:00;11.30;99.90
21522;DHT22;10922;45.572;10.002;2023-03-01T15:17:37;11.50;99.90
21522;DHT22;10922;45.572;10.002;2023-03-01T15:20:16;11.40;99.90
21522;DHT22;10922;45.572;10.002;2023-03-01T15:22:46;11.30;99.90
21522;DHT22;10922;45.572;10.002;2023-03-01T15:25:20;11.50;99.90
21522;DHT22;10922;45.572;10.002;2023-03-01T15:27:47;11.30;99.90
21522;DHT22;10922;45.572;10.002;2023-03-01T15:30:25;11.40;99.90
21522;DHT22;10922;45.572;10.002;2023-03-01T15:33:17;11.20;99.90
21522;DHT22;10922;45.572;10.002;2023-03-01T15:35:49;11.20;99.90
21522;DHT22;10922;45.572;10.002;2023-03-01T15:38:54;11.10;99.90
21522;DHT22;10922;45.572;10.002;2023-03-01T15:43:48;10.90;99.90
21522;DHT22;10922;45.572;10.002;2023-03-01T15:46:25;10.70;99.90
21522;DHT22;10922;45.572;10.002;2023-03-01T15:51:55;10.50;99.90
21522;DHT22;10922;45.572;10.002;2023-03-01T15:54:24;10.30;99.90
21522;DHT22;10922;45.572;10.002;2023-03-01T15:56:50;10.40;99.90
21522;DHT22;10922;45.572;10.002;2023-03-01T15:59:16;10.20;99.90
21522;DHT22;10922;45.572;10.002;2023-03-01T16:01:43;10.20;99.90
21522;DHT22;10922;45.572;10.002;2023-03-01T16:04:11;10.00;99.90
21522;DHT22;10922;45.572;10.002;2023-03-01T16:06:49;9.50;99.90
21522;DHT22;10922;45.572;10.002;2023-03-01T16:09:20;9.20;99.90
21522;DHT22;10922;45.572;10.002;2023-03-01T16:11:46;9.20;99.90
21522;DHT22;10922;45.572;10.002;2023-03-01T16:14:12;9.10;99.90
21522;DHT22;10922;45.572;10.002;2023-03-01T16:16:38;9.10;99.90
21522;DHT22;10922;45.572;10.002;2023-03-01T16:19:03;8.90;99.90
21522;DHT22;10922;45.572;10.002;2023-03-01T16:21:29;8.40;99.90
21522;DHT22;10922;45.572;10.002;2023-03-01T16:23:54;8.60;99.90
21522;DHT22;10922;45.572;10.002;2023-03-01T16:26:20;8.50;99.90
21522;DHT22;10922;45.572;10.002;2023-03-01T16:28:46;8.90;99.90
21522;DHT22;10922;45.572;10.002;2023-03-01T16:31:17;8.90;99.90
21522;DHT22;10922;45.572;10.002;2023-03-01T16:33:43;8.80;1.00
21522;DHT22;10922;45.572;10.002;2023-03-01T16:36:16;8.30;99.90
21522;DHT22;10922;45.572;10.002;2023-03-01T16:38:42;8.30;1.00
21522;DHT22;10922;45.572;10.002;2023-03-01T16:41:13;8.60;1.00
21522;DHT22;10922;45.572;10.002;2023-03-01T16:43:39;8.50;1.00
21522;DHT22;10922;45.572;10.002;2023-03-01T16:46:17;8.50;1.00
21522;DHT22;10922;45.572;10.002;2023-03-01T16:48:45;8.60;1.00
21522;DHT22;10922;45.572;10.002;2023-03-01T16:51:11;8.60;1.00
21522;DHT22;10922;45.572;10.002;2023-03-01T16:53:37;8.40;1.00
21522;DHT22;10922;45.572;10.002;2023-03-01T16:56:06;8.00;1.00
21522;DHT22;10922;45.572;10.002;2023-03-01T16:58:32;7.90;1.00
21522;DHT22;10922;45.572;10.002;2023-03-01T17:01:07;8.10;1.00
21522;DHT22;10922;45.572;10.002;2023-03-01T17:03:33;8.10;1.00
21522;DHT22;10922;45.572;10.002;2023-03-01T17:06:07;8.10;1.00
21522;DHT22;10922;45.572;10.002;2023-03-01T17:08:33;8.40;1.00
21522;DHT22;10922;45.572;10.002;2023-03-01T17:11:13;8.50;1.00
21522;DHT22;10922;45.572;10.002;2023-03-01T17:13:43;8.30;1.00
21522;DHT22;10922;45.572;10.002;2023-03-01T17:16:12;8.40;1.00
21522;DHT22;10922;45.572;10.002;2023-03-01T17:18:38;8.50;1.00
21522;DHT22;10922;45.572;10.002;2023-03-01T17:21:04;8.30;1.00
21522;DHT22;10922;45.572;10.002;2023-03-01T17:23:31;8.10;1.00
21522;DHT22;10922;45.572;10.002;2023-03-01T17:25:57;8.20;1.00
21522;DHT22;10922;45.572;10.002;2023-03-01T17:28:25;8.20;1.00
21522;DHT22;10922;45.572;10.002;2023-03-01T17:30:52;8.30;1.00
21522;DHT22;10922;45.572;10.002;2023-03-01T17:33:21;8.40;1.00
21522;DHT22;10922;45.572;10.002;2023-03-01T17:35:48;8.70;1.00
21522;DHT22;10922;45.572;10.002;2023-03-01T17:38:20;8.50;1.00
21522;DHT22;10922;45.572;10.002;2023-03-01T17:40:59;8.20;1.00
21522;DHT22;10922;45.572;10.002;2023-03-01T17:43:26;8.30;1.00
21522;DHT22;10922;45.572;10.002;2023-03-01T17:45:54;8.30;1.00
21522;DHT22;10922;45.572;10.002;2023-03-01T17:48:20;8.00;1.00
21522;DHT22;10922;45.572;10.002;2023-03-01T17:50:55;8.00;1.00
21522;DHT22;10922;45.572;10.002;2023-03-01T17:53:21;8.30;1.00
21522;DHT22;10922;45.572;10.002;2023-03-01T17:55:47;8.00;1.00
21522;DHT22;10922;45.572;10.002;2023-03-01T17:58:18;8.00;1.00
21522;DHT22;10922;45.572;10.002;2023-03-01T18:00:48;7.80;1.00
21522;DHT22;10922;45.572;10.002;2023-03-01T18:03:15;7.60;1.00
21522;DHT22;10922;45.572;10.002;2023-03-01T18:05:40;7.50;1.00
21522;DHT22;10922;45.572;10.002;2023-03-01T18:08:06;7.30;1.00